EDDTEDDG

Guest
Details From EDDT - Berlin Tegel
To EDDG - Muenster Osnabrueck
Flight Number -
Tags Generated
Created
Modified
Stats Distance 207 nm / 384 km
Max Altitude 0 ft / 0 m
Waypoints 2
Social Downloads 0
Likes 0
Share VATSIM

Download

Looking for another format? Having issues loading an existing format? Contact us
Advertisement - Login to hide

Notes

Generated

Route

EDDT EDDG

ID Type Via Altitude Latitude Longitude Leg Dist Tot Dist Heading (true) Name
O EDDT APT - 0 ft / 0 m 52.55668˚ 13.27499˚ - 0 nm - -
O EDDG APT - 0 ft / 0 m 52.13151˚ 7.67006˚ 207 nm 207 nm 265° / 261° -

Altitude Profile

Advertisement - Login to hide

Weather


0- 5 10 15 20 25 30 35+ Temperature / ° C

Clouds and Precipitation
Forecast for 2017-12-15 00:00 UTC. Updated 2 minutes ago

Ground ~20,000 ft ~40,000 ft Winds

EDDT

Details ICAO EDDT (TXL)
Name Berlin Tegel
Region Germany - Civil
Timezone Europe/Berlin (UTC+1.0)
Stats Elevation 122 ft / 37 m (AMSL)
Location 52.559100° 13.290188°
Runways 2
Magnetic Variation 3.752° E

METAR

EDDT 142320Z 19007KT 9999 BKN038 03/01 Q0992

Decode

TAF

TAF EDDT 141700Z 1418/1518 22010KT 9999 BKN040 BECMG 1421/1423 22004KT TEMPO 1508/1518 3500 -RA BKN012

Decode

Departure Runways

ID Width Length Bearing (true) Bearing (mag) Surface Threshold Offset Overrun Length
08L 151 ft / 46 m 9,885 ft / 3,013 m 80.83° 77.08° Asphalt 0 ft / 0 m 226 ft / 69 m
08R 151 ft / 46 m 7,923 ft / 2,415 m 80.84° 77.09° Asphalt 341 ft / 104 m 207 ft / 63 m
26L 151 ft / 46 m 7,923 ft / 2,415 m 260.87° 257.12° Asphalt 722 ft / 220 m 157 ft / 48 m
26R 151 ft / 46 m 9,885 ft / 3,013 m 260.86° 257.11° Asphalt 0 ft / 0 m 223 ft / 68 m

EDDG

Details ICAO EDDG (FMO)
Name Muenster Osnabrueck
Region Germany - Civil
Timezone Europe/Berlin (UTC+1.0)
Stats Elevation 159 ft / 48 m (AMSL)
Location 52.134580° 7.684669°
Runways 1
Magnetic Variation 2.068° E

METAR

EDDG 142320Z 15003KT 9999 SCT013 BKN022 03/02 Q0989 TEMPO BKN013

Decode

TAF

TAF EDDG 141700Z 1418/1518 20005KT 9999 BKN020 TEMPO 1419/1423 BKN012 BECMG 1423/1501 BKN007 TEMPO 1506/1510 3500 BR BKN004 BECMG 1511/1514 26004KT BKN012 TEMPO 1514/1518 BKN015

Decode

Destination Runways

ID Width Length Bearing (true) Bearing (mag) Surface Threshold Offset Overrun Length
07 148 ft / 45 m 7,303 ft / 2,226 m 70.93° 68.86° Asphalt 151 ft / 46 m 0 ft / 0 m
25 148 ft / 45 m 7,303 ft / 2,226 m 250.96° 248.89° Asphalt 292 ft / 89 m 0 ft / 0 m

Approach Navaids

Runway Type Ident Frequency Range Bearing (true) Bearing (mag) Slope Elevation
07 Localiser IMOE 111.90 MHz 18 nm / 33 km 70.93° 68.86° - 156 ft / 48 m (AMSL)
07 Glidescope IMOE 111.90 MHz 10 nm / 19 km 70.95° 68.88° 3.00° 156 ft / 48 m (AMSL)
25 Localiser IMOW 110.10 MHz 18 nm / 33 km 251.02° 248.96° - 159 ft / 48 m (AMSL)
25 Glidescope IMOW 110.10 MHz 10 nm / 19 km 250.95° 248.88° 3.00° 159 ft / 48 m (AMSL)

Popular Alternatives